createdAt,value
2023-03-05T00:02:14.254Z,4.97
2023-03-05T00:04:46.408Z,4.65
2023-03-05T00:07:17.519Z,4.82
2023-03-05T00:09:48.335Z,4.70
2023-03-05T00:12:19.376Z,4.43
2023-03-05T00:14:50.156Z,4.55
2023-03-05T00:17:21.429Z,4.75
2023-03-05T00:19:53.764Z,6.00
2023-03-05T00:22:24.759Z,6.90
2023-03-05T00:24:55.470Z,7.70
2023-03-05T00:27:26.562Z,7.40
2023-03-05T00:29:57.438Z,7.75
2023-03-05T00:32:28.794Z,8.85
2023-03-05T00:35:01.059Z,7.78
2023-03-05T00:37:32.311Z,7.37
2023-03-05T00:40:03.097Z,5.53
2023-03-05T00:42:38.705Z,6.28
2023-03-05T00:45:12.075Z,5.40
2023-03-05T00:47:43.378Z,6.13
2023-03-05T00:50:15.680Z,5.85
2023-03-05T00:52:46.906Z,5.25
2023-03-05T00:55:17.914Z,4.25
2023-03-05T00:57:49.207Z,4.82
2023-03-05T01:00:20.483Z,4.53
2023-03-05T01:02:51.491Z,4.85
2023-03-05T01:05:23.896Z,5.32
2023-03-05T01:07:56.180Z,3.92
2023-03-05T01:10:28.146Z,5.07
2023-03-05T01:12:59.761Z,4.97
2023-03-05T01:15:30.864Z,5.40
2023-03-05T01:18:01.749Z,4.72
2023-03-05T01:20:36.066Z,3.90
2023-03-05T01:23:07.121Z,4.60
2023-03-05T01:25:38.289Z,4.53
2023-03-05T01:28:10.046Z,5.10
2023-03-05T01:30:40.933Z,6.05
2023-03-05T01:33:11.867Z,6.10
2023-03-05T01:35:44.377Z,7.35
2023-03-05T01:38:15.736Z,7.43
2023-03-05T01:40:47.333Z,7.40
2023-03-05T01:43:27.736Z,7.20
2023-03-05T01:46:34.948Z,6.47
2023-03-05T01:49:20.920Z,7.55
2023-03-05T01:52:06.502Z,7.32
2023-03-05T01:54:41.926Z,6.20
2023-03-05T01:57:18.293Z,5.90
2023-03-05T01:59:54.373Z,5.60
2023-03-05T02:02:26.445Z,4.80
2023-03-05T02:05:02.273Z,5.43
2023-03-05T02:07:38.100Z,5.13
2023-03-05T02:10:19.579Z,4.35
2023-03-05T02:12:51.980Z,4.30
2023-03-05T02:15:23.504Z,3.08
2023-03-05T02:17:54.186Z,4.32
2023-03-05T02:20:27.892Z,3.40
2023-03-05T02:25:33.571Z,3.42
2023-03-05T02:30:40.628Z,3.60
2023-03-05T02:33:11.593Z,5.13
2023-03-05T02:35:43.880Z,5.32
2023-03-05T02:38:17.971Z,2.33
2023-03-05T02:40:49.196Z,1.90
2023-03-05T02:43:21.488Z,2.67
2023-03-05T02:45:53.024Z,2.42
2023-03-05T02:48:24.846Z,1.90
2023-03-05T02:50:56.610Z,2.72
2023-03-05T02:53:29.331Z,2.38
2023-03-05T02:56:00.973Z,2.30
2023-03-05T02:58:31.769Z,2.08
2023-03-05T03:01:03.045Z,1.48
2023-03-05T03:03:33.931Z,1.50
2023-03-05T03:06:05.508Z,2.20
2023-03-05T03:08:37.892Z,2.38
2023-03-05T03:11:11.227Z,2.22
2023-03-05T03:13:42.130Z,2.65
2023-03-05T03:16:16.138Z,2.75
2023-03-05T03:18:49.085Z,2.72
2023-03-05T03:21:23.207Z,2.90
2023-03-05T03:23:55.651Z,3.30
2023-03-05T03:26:27.098Z,3.17
2023-03-05T03:28:58.054Z,3.20
2023-03-05T03:31:29.118Z,2.47
2023-03-05T03:33:59.734Z,1.88
2023-03-05T03:36:30.773Z,2.45
2023-03-05T03:39:03.815Z,2.22
2023-03-05T03:41:35.491Z,2.15
2023-03-05T03:44:08.896Z,2.70
2023-03-05T03:46:41.023Z,1.58
2023-03-05T03:49:18.309Z,2.28
2023-03-05T03:51:50.882Z,1.73
2023-03-05T03:54:24.167Z,2.10
2023-03-05T03:56:55.236Z,1.90
2023-03-05T03:59:26.292Z,2.33
2023-03-05T04:01:57.503Z,1.90
2023-03-05T04:04:29.420Z,2.25
2023-03-05T04:07:00.642Z,2.17
2023-03-05T04:09:32.896Z,1.90
2023-03-05T04:12:04.143Z,1.90
2023-03-05T04:14:35.016Z,1.48
2023-03-05T04:17:06.680Z,1.83
2023-03-05T04:19:37.650Z,2.10
2023-03-05T04:22:09.387Z,2.17
2023-03-05T04:24:41.660Z,2.45
2023-03-05T04:27:13.216Z,2.38
2023-03-05T04:29:44.538Z,2.67
2023-03-05T04:32:15.556Z,2.22
2023-03-05T04:34:46.462Z,2.58
2023-03-05T04:37:17.599Z,1.85
2023-03-05T04:39:49.649Z,2.25
2023-03-05T04:42:21.419Z,3.13
2023-03-05T04:44:53.048Z,3.28
2023-03-05T04:47:24.022Z,3.17
2023-03-05T04:49:55.414Z,3.28
2023-03-05T04:52:26.619Z,3.03
2023-03-05T04:54:59.081Z,3.13
2023-03-05T04:57:30.302Z,3.40
2023-03-05T05:00:00.944Z,2.85
2023-03-05T05:02:32.152Z,3.40
2023-03-05T05:05:03.122Z,2.63
2023-03-05T05:07:34.200Z,3.40
2023-03-05T05:10:07.929Z,3.90
2023-03-05T05:12:39.894Z,3.53
2023-03-05T05:15:12.858Z,2.78
2023-03-05T05:17:44.805Z,2.60
2023-03-05T05:20:18.353Z,2.80
2023-03-05T05:22:49.424Z,3.83
2023-03-05T05:25:21.734Z,4.15
2023-03-05T05:27:53.493Z,3.30
2023-03-05T05:30:24.564Z,3.75
2023-03-05T05:32:55.656Z,3.80
2023-03-05T05:35:26.646Z,3.92
2023-03-05T05:37:58.053Z,3.65
2023-03-05T05:40:30.234Z,4.65
2023-03-05T05:43:01.528Z,4.30
2023-03-05T05:45:32.331Z,3.72
2023-03-05T05:48:05.739Z,3.88
2023-03-05T05:50:36.611Z,4.28
2023-03-05T05:53:07.747Z,4.88
2023-03-05T05:55:42.374Z,8.85
2023-03-05T05:58:13.382Z,5.60
2023-03-05T06:00:44.285Z,4.82
2023-03-05T06:03:15.574Z,5.00
2023-03-05T06:05:47.793Z,7.80
2023-03-05T06:08:19.748Z,13.57
2023-03-05T06:10:58.309Z,19.27
2023-03-05T06:13:29.736Z,6.65
2023-03-05T06:16:02.008Z,5.72
2023-03-05T06:18:33.343Z,5.22
2023-03-05T06:21:06.826Z,4.50
2023-03-05T06:23:38.447Z,4.65
2023-03-05T06:26:13.124Z,3.83
2023-03-05T06:28:44.313Z,5.57
2023-03-05T06:31:18.626Z,5.45
2023-03-05T06:33:49.907Z,4.32
2023-03-05T06:36:23.724Z,5.63
2023-03-05T06:38:55.998Z,4.93
2023-03-05T06:41:31.125Z,5.40
2023-03-05T06:44:04.238Z,3.30
2023-03-05T06:46:37.417Z,3.60
2023-03-05T06:49:09.677Z,3.10
2023-03-05T06:51:42.511Z,3.22
2023-03-05T06:54:16.674Z,3.17
2023-03-05T06:56:49.617Z,4.05
2023-03-05T06:59:21.794Z,5.60
2023-03-05T07:01:52.812Z,5.55
2023-03-05T07:04:25.014Z,3.67
2023-03-05T07:06:55.918Z,3.13
2023-03-05T07:09:27.288Z,2.38
2023-03-05T07:11:59.491Z,4.10
2023-03-05T07:14:30.630Z,2.87
2023-03-05T07:17:01.430Z,5.30
2023-03-05T07:19:32.550Z,3.17
2023-03-05T07:22:03.234Z,3.85
2023-03-05T07:24:34.690Z,6.35
2023-03-05T07:27:07.166Z,6.13
2023-03-05T07:29:38.611Z,6.22
2023-03-05T07:32:09.809Z,6.32
2023-03-05T07:34:41.263Z,5.20
2023-03-05T07:37:12.323Z,3.88
2023-03-05T07:39:46.268Z,5.43
2023-03-05T07:42:19.150Z,3.90
2023-03-05T07:45:00.295Z,2.97
2023-03-05T07:47:31.258Z,4.15
2023-03-05T07:50:02.651Z,5.40
2023-03-05T07:52:33.691Z,4.55
2023-03-05T07:55:05.333Z,3.97
2023-03-05T07:57:39.125Z,2.30
2023-03-05T08:00:12.253Z,2.45
2023-03-05T08:02:42.975Z,1.75
2023-03-05T08:05:14.455Z,1.88
2023-03-05T08:07:45.330Z,1.90
2023-03-05T08:10:16.560Z,1.55
2023-03-05T08:12:48.908Z,2.03
2023-03-05T08:15:20.177Z,2.22
2023-03-05T08:17:51.109Z,2.00
2023-03-05T08:20:22.315Z,2.67
2023-03-05T08:22:54.280Z,2.50
2023-03-05T08:25:25.485Z,1.83
2023-03-05T08:27:57.769Z,1.90
2023-03-05T08:30:28.978Z,2.03
2023-03-05T08:33:00.077Z,1.70
2023-03-05T08:35:31.164Z,1.05
2023-03-05T08:38:01.995Z,1.80
2023-03-05T08:40:33.186Z,1.58
2023-03-05T08:43:07.523Z,1.35
2023-03-05T08:45:40.292Z,1.75
2023-03-05T08:48:11.177Z,1.33
2023-03-05T08:50:42.241Z,0.73
2023-03-05T08:53:13.183Z,1.20
2023-03-05T08:55:44.316Z,1.17
2023-03-05T08:58:16.463Z,1.27
2023-03-05T09:00:47.500Z,1.88
2023-03-05T09:03:18.477Z,1.63
2023-03-05T09:05:49.517Z,0.90
2023-03-05T09:08:21.026Z,1.30
2023-03-05T09:10:52.169Z,1.75
2023-03-05T09:13:24.700Z,2.03
2023-03-05T09:16:00.275Z,2.33
2023-03-05T09:18:32.066Z,3.22
2023-03-05T09:21:07.510Z,2.35
2023-03-05T09:23:38.331Z,2.15
2023-03-05T09:26:12.473Z,2.53
2023-03-05T09:28:45.036Z,2.17
2023-03-05T09:31:16.356Z,1.85
2023-03-05T09:33:48.507Z,1.95
2023-03-05T09:37:45.347Z,1.73
2023-03-05T09:40:20.009Z,1.80
2023-03-05T09:43:10.844Z,2.13
2023-03-05T09:45:58.856Z,3.00
2023-03-05T09:48:47.889Z,2.63
2023-03-05T09:51:26.224Z,2.85
2023-03-05T09:54:04.823Z,2.35
2023-03-05T09:56:42.493Z,2.75
2023-03-05T09:59:27.613Z,3.55
2023-03-05T10:02:04.894Z,2.88
2023-03-05T10:04:46.647Z,2.63
2023-03-05T10:07:22.904Z,2.47
2023-03-05T10:09:59.561Z,1.23
2023-03-05T10:12:42.952Z,2.33
2023-03-05T10:15:16.518Z,2.40
2023-03-05T10:18:14.540Z,1.55
2023-03-05T10:20:59.375Z,2.05
2023-03-05T10:23:52.574Z,2.83
2023-03-05T10:26:43.436Z,2.25
2023-03-05T10:29:41.419Z,1.23
2023-03-05T10:32:26.357Z,1.27
2023-03-05T10:35:25.064Z,1.30
2023-03-05T10:38:25.554Z,1.15
2023-03-05T10:40:58.143Z,1.17
2023-03-05T10:43:39.274Z,1.88
2023-03-05T10:46:18.510Z,2.08
2023-03-05T10:48:54.647Z,1.38
2023-03-05T10:51:38.089Z,1.65
2023-03-05T10:54:20.297Z,1.73
2023-03-05T10:56:51.719Z,3.05
2023-03-05T10:59:22.430Z,1.58
2023-03-05T11:02:08.708Z,1.35
2023-03-05T11:04:42.117Z,1.73
2023-03-05T11:07:39.704Z,1.23
2023-03-05T11:10:28.107Z,2.08
2023-03-05T11:13:00.822Z,1.38
2023-03-05T11:15:32.565Z,1.52
2023-03-05T11:18:21.211Z,1.67
2023-03-05T11:20:53.262Z,1.77
2023-03-05T11:23:26.460Z,1.27
2023-03-05T11:26:02.820Z,1.88
2023-03-05T11:28:38.096Z,1.52
2023-03-05T11:31:24.578Z,1.25
2023-03-05T11:34:04.299Z,2.30
2023-03-05T11:36:36.359Z,1.55
2023-03-05T11:39:19.641Z,1.70
2023-03-05T11:41:53.991Z,1.35
2023-03-05T11:44:29.841Z,1.75
2023-03-05T11:47:05.815Z,1.13
2023-03-05T11:49:46.415Z,2.42
2023-03-05T11:52:23.609Z,1.30
2023-03-05T11:55:03.957Z,2.03
2023-03-05T11:57:45.158Z,3.00
2023-03-05T12:00:19.785Z,3.75
2023-03-05T12:02:56.069Z,3.00
2023-03-05T12:05:28.530Z,3.80
2023-03-05T12:08:03.237Z,5.50
2023-03-05T12:10:35.775Z,3.88
2023-03-05T12:13:16.551Z,3.53
2023-03-05T12:16:01.553Z,4.32
2023-03-05T12:18:53.799Z,4.90
2023-03-05T12:21:35.049Z,4.32
2023-03-05T12:24:40.031Z,4.63
2023-03-05T12:27:32.604Z,4.47
2023-03-05T12:30:04.281Z,4.28
2023-03-05T12:32:55.076Z,4.00
2023-03-05T12:35:38.346Z,1.50
2023-03-05T12:38:32.516Z,1.65
2023-03-05T12:41:44.873Z,1.77
2023-03-05T12:44:35.659Z,1.30
2023-03-05T12:47:23.849Z,2.78
2023-03-05T12:49:55.137Z,1.95
2023-03-05T12:52:31.054Z,2.15
2023-03-05T12:55:23.799Z,4.20
2023-03-05T12:58:00.032Z,1.88
2023-03-05T13:00:41.971Z,2.95
2023-03-05T13:03:19.710Z,2.42
2023-03-05T13:05:54.562Z,3.10
2023-03-05T13:08:28.563Z,3.45
2023-03-05T13:11:02.904Z,3.22
2023-03-05T13:13:38.684Z,2.35
2023-03-05T13:16:19.963Z,2.70
2023-03-05T13:18:52.494Z,3.20
2023-03-05T13:21:29.183Z,2.03
2023-03-05T13:24:02.634Z,2.30
2023-03-05T13:26:41.235Z,2.10
2023-03-05T13:29:15.613Z,3.80
2023-03-05T13:31:50.516Z,1.55
2023-03-05T13:34:26.537Z,1.23
2023-03-05T13:37:03.233Z,1.52
2023-03-05T13:39:39.283Z,1.75
2023-03-05T13:42:20.205Z,1.00
2023-03-05T13:44:57.233Z,0.77
2023-03-05T13:47:33.244Z,0.88
2023-03-05T13:50:07.236Z,1.08
2023-03-05T13:52:40.367Z,2.05
2023-03-05T13:55:18.047Z,1.27
2023-03-05T13:57:53.142Z,2.10
2023-03-05T14:00:34.104Z,2.15
2023-03-05T14:03:23.059Z,2.50
2023-03-05T14:05:55.387Z,3.03
2023-03-05T14:08:28.504Z,2.17
2023-03-05T14:11:01.462Z,3.47
2023-03-05T14:13:33.813Z,7.63
2023-03-05T14:16:09.735Z,3.92
2023-03-05T14:18:58.270Z,5.80
2023-03-05T14:21:47.212Z,5.50
2023-03-05T14:24:27.104Z,5.40
2023-03-05T14:26:59.921Z,6.72
2023-03-05T14:29:31.854Z,5.00
2023-03-05T14:32:07.807Z,4.63
2023-03-05T14:34:43.154Z,3.90
2023-03-05T14:37:24.808Z,3.92
2023-03-05T14:39:59.561Z,3.75
2023-03-05T14:42:35.250Z,3.80
2023-03-05T14:45:15.014Z,3.97
2023-03-05T14:47:46.849Z,2.72
2023-03-05T14:50:23.460Z,2.70
2023-03-05T14:52:58.540Z,2.65
2023-03-05T14:55:32.906Z,3.15
2023-03-05T14:58:06.101Z,2.97
2023-03-05T15:00:37.309Z,2.67
2023-03-05T15:03:08.252Z,2.30
2023-03-05T15:05:42.181Z,2.00
2023-03-05T15:08:16.289Z,2.50
2023-03-05T15:10:47.548Z,2.35
2023-03-05T15:13:19.618Z,2.47
2023-03-05T15:15:52.815Z,3.13
2023-03-05T15:18:24.734Z,2.00
2023-03-05T15:20:59.094Z,2.25
2023-03-05T15:23:35.524Z,3.83
2023-03-05T15:26:10.009Z,2.83
2023-03-05T15:28:41.820Z,2.95
2023-03-05T15:31:13.472Z,2.80
2023-03-05T15:33:44.081Z,1.85
2023-03-05T15:36:16.854Z,2.00
2023-03-05T15:38:48.269Z,1.83
2023-03-05T15:41:22.513Z,2.60
2023-03-05T15:43:53.422Z,2.25
2023-03-05T15:46:25.118Z,2.92
2023-03-05T15:49:53.316Z,4.47
2023-03-05T15:52:26.237Z,5.03
2023-03-05T15:54:57.536Z,5.40
2023-03-05T15:57:29.221Z,5.93
2023-03-05T15:59:59.964Z,5.20
2023-03-05T16:02:31.198Z,3.60
2023-03-05T16:05:02.112Z,3.40
2023-03-05T16:07:38.431Z,2.63
2023-03-05T16:10:14.863Z,3.33
2023-03-05T16:12:49.928Z,3.15
2023-03-05T16:15:23.296Z,4.20
2023-03-05T16:17:58.975Z,3.53
2023-03-05T16:20:29.852Z,3.15
2023-03-05T16:23:03.171Z,3.72
2023-03-05T16:25:34.410Z,3.30
2023-03-05T16:28:05.701Z,3.70
2023-03-05T16:30:36.607Z,3.72
2023-03-05T16:33:07.593Z,4.80
2023-03-05T16:35:38.393Z,4.40
2023-03-05T16:38:10.890Z,6.18
2023-03-05T16:41:06.738Z,4.95
2023-03-05T16:43:33.126Z,5.15
2023-03-05T16:46:03.987Z,6.03
2023-03-05T16:48:36.090Z,5.70
2023-03-05T16:51:07.671Z,5.45
2023-03-05T16:53:40.963Z,5.57
2023-03-05T16:56:12.536Z,5.97
2023-03-05T16:58:43.751Z,6.07
2023-03-05T17:01:17.112Z,5.57
2023-03-05T17:03:48.451Z,6.60
2023-03-05T17:06:22.523Z,7.65
2023-03-05T17:08:56.132Z,7.47
2023-03-05T17:11:27.521Z,7.07
2023-03-05T17:13:58.994Z,7.72
2023-03-05T17:16:29.816Z,6.53
2023-03-05T17:19:01.067Z,4.32
2023-03-05T17:21:31.896Z,4.45
2023-03-05T17:24:04.466Z,7.03
2023-03-05T17:26:36.588Z,5.97
2023-03-05T17:29:08.517Z,3.63
2023-03-05T17:31:39.349Z,5.72
2023-03-05T17:34:10.411Z,4.80
2023-03-05T17:36:41.332Z,7.07
2023-03-05T17:39:14.493Z,8.63
2023-03-05T17:41:45.640Z,7.47
2023-03-05T17:44:16.831Z,7.90
2023-03-05T17:46:47.764Z,5.88
2023-03-05T17:49:19.216Z,6.07
2023-03-05T17:51:50.106Z,6.65
2023-03-05T17:54:22.908Z,6.07
2023-03-05T17:56:56.675Z,6.30
2023-03-05T17:59:28.116Z,5.57
2023-03-05T18:01:58.982Z,7.45
2023-03-05T18:04:30.097Z,6.63
2023-03-05T18:07:01.885Z,6.07
2023-03-05T18:09:34.652Z,6.10
2023-03-05T18:12:05.879Z,7.80
2023-03-05T18:14:36.840Z,6.05
2023-03-05T18:17:07.939Z,5.78
2023-03-05T18:19:38.987Z,5.60
2023-03-05T18:22:10.023Z,6.63
2023-03-05T18:24:42.569Z,6.35
2023-03-05T18:27:13.449Z,6.65
2023-03-05T18:29:44.574Z,8.20
2023-03-05T18:32:15.714Z,8.35
2023-03-05T18:34:48.467Z,6.50
2023-03-05T18:37:21.212Z,6.65
2023-03-05T18:39:54.044Z,6.57
2023-03-05T18:42:24.905Z,10.45
2023-03-05T18:44:57.140Z,16.17
2023-03-05T18:47:28.194Z,19.58
2023-03-05T18:49:59.249Z,17.58
2023-03-05T18:52:30.167Z,18.25
2023-03-05T18:55:03.163Z,18.83
2023-03-05T18:57:34.031Z,18.55
2023-03-05T19:00:07.541Z,18.33
2023-03-05T19:02:38.545Z,19.10
2023-03-05T19:05:11.501Z,16.85
2023-03-05T19:07:43.570Z,17.20
2023-03-05T19:10:18.351Z,21.10
2023-03-05T19:12:56.914Z,20.85
2023-03-05T19:15:29.713Z,20.70
2023-03-05T19:18:00.837Z,25.13
2023-03-05T19:20:32.049Z,24.95
2023-03-05T19:23:02.730Z,23.65
2023-03-05T19:25:36.551Z,23.33
2023-03-05T19:28:07.498Z,23.30
2023-03-05T19:30:38.990Z,23.40
2023-03-05T19:33:09.851Z,23.98
2023-03-05T19:35:43.696Z,23.60
2023-03-05T19:38:14.577Z,23.83
2023-03-05T19:40:48.286Z,29.20
2023-03-05T19:45:50.228Z,26.70
2023-03-05T19:48:21.602Z,27.77
2023-03-05T19:50:53.000Z,22.88
2023-03-05T19:53:24.000Z,26.90
2023-03-05T19:55:56.856Z,29.95
2023-03-05T19:58:27.953Z,32.42
2023-03-05T20:01:08.331Z,32.17
2023-03-05T20:03:40.239Z,25.90
2023-03-05T20:06:11.396Z,19.80
2023-03-05T20:08:42.394Z,19.13
2023-03-05T20:11:17.371Z,15.45
2023-03-05T20:13:48.249Z,15.52
2023-03-05T20:16:21.686Z,14.50
2023-03-05T20:18:54.858Z,12.52
2023-03-05T20:24:00.567Z,11.27
2023-03-05T20:29:06.335Z,12.20
2023-03-05T20:31:38.095Z,12.63
2023-03-05T20:34:10.758Z,14.48
2023-03-05T20:36:42.406Z,14.40
2023-03-05T20:39:13.309Z,13.25
2023-03-05T20:41:47.059Z,12.60
2023-03-05T20:46:59.696Z,10.35
2023-03-05T20:49:30.780Z,11.85
2023-03-05T20:52:02.111Z,11.88
2023-03-05T20:54:33.435Z,11.93
2023-03-05T20:57:06.533Z,13.00
2023-03-05T20:59:37.516Z,9.00
2023-03-05T21:02:11.205Z,12.40
2023-03-05T21:04:42.174Z,11.13
2023-03-05T21:07:13.226Z,11.75
2023-03-05T21:09:43.932Z,11.63
2023-03-05T21:12:16.597Z,13.18
2023-03-05T21:14:47.463Z,14.47
2023-03-05T21:17:19.849Z,13.32
2023-03-05T21:19:50.588Z,15.07
2023-03-05T21:22:21.825Z,14.57
2023-03-05T21:25:02.278Z,15.35
2023-03-05T21:27:40.113Z,15.70
2023-03-05T21:30:13.550Z,17.27
2023-03-05T21:32:44.818Z,17.83
2023-03-05T21:35:19.703Z,18.52
2023-03-05T21:37:52.711Z,19.10
2023-03-05T21:40:24.147Z,20.13
2023-03-05T21:42:56.919Z,21.33
2023-03-05T21:45:30.868Z,20.57
2023-03-05T21:48:02.136Z,19.75
2023-03-05T21:50:33.784Z,19.30
2023-03-05T21:53:05.240Z,21.38
2023-03-05T21:55:45.306Z,22.20
2023-03-05T21:58:17.979Z,25.33
2023-03-05T22:00:49.020Z,33.65
2023-03-05T22:03:20.400Z,26.83
2023-03-05T22:05:51.105Z,38.65
2023-03-05T22:08:22.923Z,44.15
2023-03-05T22:10:54.544Z,26.92
2023-03-05T22:13:27.266Z,30.75
2023-03-05T22:16:00.806Z,23.75
2023-03-05T22:18:33.848Z,21.77
2023-03-05T22:21:05.178Z,17.45
2023-03-05T22:23:36.908Z,21.45
2023-03-05T22:26:09.537Z,22.55
2023-03-05T22:28:42.697Z,22.88
2023-03-05T22:31:13.676Z,26.40
2023-03-05T22:33:44.731Z,27.45
2023-03-05T22:36:16.579Z,56.53
2023-03-05T22:38:48.310Z,33.25
2023-03-05T22:41:21.193Z,27.65
2023-03-05T22:43:54.976Z,24.60
2023-03-05T22:48:58.540Z,20.92
2023-03-05T22:51:29.440Z,19.95
2023-03-05T22:54:00.652Z,21.02
2023-03-05T22:56:31.371Z,19.85
2023-03-05T22:59:04.003Z,19.15
2023-03-05T23:01:34.824Z,18.88
2023-03-05T23:04:18.342Z,19.52
2023-03-05T23:06:49.284Z,17.95
2023-03-05T23:09:20.336Z,16.85
2023-03-05T23:11:51.165Z,17.35
2023-03-05T23:14:23.778Z,18.05
2023-03-05T23:16:54.374Z,18.50
2023-03-05T23:19:25.626Z,17.88
2023-03-05T23:21:56.334Z,16.80
2023-03-05T23:24:27.471Z,16.50
2023-03-05T23:26:58.136Z,18.13
2023-03-05T23:29:33.145Z,17.05
2023-03-05T23:32:03.786Z,18.98
2023-03-05T23:34:34.899Z,56.95
2023-03-05T23:37:06.696Z,57.78
2023-03-05T23:39:37.692Z,43.55
2023-03-05T23:42:08.789Z,34.38
2023-03-05T23:44:41.340Z,26.45
2023-03-05T23:47:12.001Z,26.73
2023-03-05T23:49:42.988Z,29.20
2023-03-05T23:52:13.768Z,32.45
2023-03-05T23:54:44.792Z,31.83
2023-03-05T23:57:15.610Z,36.50
2023-03-05T23:59:48.413Z,30.42
